Waasmunster, Belgium
Current Conditions -  °F | °C
As of 12:20 AM on Thursday 23 Oct 2014 (Local Time) from EBAW Reporting Station
Overcast Overcast  
Wind Chill: 50°   Ceiling: 4400
Heat Index: 50°   Visibility: 6mi
Dew Point: 45°   Wind: 7mph
Humidity: 82%   Direction: 240°WSW
Pressure: 30.21"   Gusts: NA
Location:  51.11°N, 4.09°E
Report Text: EBAW 222220Z AUTO 24006KT 9999 OVC044/// 10/07 Q1023
Loading
Personal Weather Stations






























Interactive Weather Map
Tropical Storm Tracking
New forecast layout! Learn more

10-Day Weather Forecast

Advertisements
Track Severe Weather on mobile